Pulau Tioman — 3EYO9 — position and weather

sailwx.info

Track history (hours):
 
Tides and Currents Weather Stations Pressure Air Temp Water Temp Dewpoint Dewpoint Depression Visibility Wind Speed Wind Dir Waves Ship Positions

Pulau Tioman

Last reported at 2015-Jan-29 08:31 UTC. Time now 2015-Jan-31 10:09 UTC.
Position N 34°37' E 134°57'.

Length 120 m; draft 5.7 m.

Type: Cargo ship. MMSI: 356613000.

Date/timePositionNaut miles runAvg speedWind from/ knotsBaromVisibWave heightAir tempDewpointWater temp
2015-Jan-29 08:31N 34°37' E 134°57'1313.9
2015-Jan-29 07:34N 34°36' E 135°13'6 5.9
2015-Jan-29 06:32N 34°42' E 135°15'0 0.0
2015-Jan-29 05:27N 34°42' E 135°15'0 0.0
2015-Jan-29 04:32N 34°42' E 135°15'0 0.0
2015-Jan-29 03:32N 34°42' E 135°15'0 0.0
2015-Jan-29 02:32N 34°42' E 135°15'0 0.0
2015-Jan-29 01:32N 34°42' E 135°15'0 0.1
2015-Jan-29 00:33N 34°42' E 135°15'8 8.1
2015-Jan-28 23:33N 34°34' E 135°15'1413.7
2015-Jan-28 22:33N 34°23' E 135°04'1313.3
2015-Jan-28 21:33N 34°11' E 134°59'1414.3
2015-Jan-28 20:34N 33°56' E 134°59'216 6.3
2015-Jan-27 10:06N 34°46' E 139°14'2113.4
2015-Jan-27 08:34N 35°00' E 139°32'1413.6
2015-Jan-27 07:33N 35°10' E 139°45'1212.0
2015-Jan-27 06:33N 35°21' E 139°42'6 5.8
2015-Jan-27 05:33N 35°27' E 139°41'0 0.0
2015-Jan-27 04:33N 35°27' E 139°41'0 0.0
2015-Jan-27 03:33N 35°27' E 139°41'0 0.0
2015-Jan-27 02:33N 35°27' E 139°41'0 0.0
2015-Jan-27 01:33N 35°27' E 139°41'0 0.0
2015-Jan-27 00:33N 35°27' E 139°41'0 0.0
2015-Jan-26 23:33N 35°27' E 139°41'0 0.0
2015-Jan-26 22:33N 35°27' E 139°41'0 0.0
2015-Jan-26 21:33N 35°27' E 139°41'0 0.0
2015-Jan-26 20:33N 35°27' E 139°41'0 0.0
2015-Jan-26 19:33N 35°27' E 139°41'0 0.0
2015-Jan-26 18:33N 35°27' E 139°41'0 0.0
2015-Jan-26 17:30N 35°27' E 139°41'0 0.0
2015-Jan-26 16:33N 35°27' E 139°41'0 0.0
2015-Jan-26 15:33N 35°27' E 139°41'0 0.0
2015-Jan-26 14:33N 35°27' E 139°41'0 0.0
2015-Jan-26 13:33N 35°27' E 139°41'0 0.0
2015-Jan-26 12:33N 35°27' E 139°41'0 0.0
2015-Jan-26 11:33N 35°27' E 139°41'0 0.0
2015-Jan-26 10:33N 35°27' E 139°41'0 0.0
2015-Jan-26 09:33N 35°27' E 139°41'2 1.6
2015-Jan-26 08:33N 35°26' E 139°42'0 0.2
2015-Jan-26 07:33N 35°26' E 139°42'0 0.0
2015-Jan-26 06:33N 35°26' E 139°42'0 0.0
2015-Jan-26 05:33N 35°26' E 139°42'0 0.0
2015-Jan-26 04:33N 35°26' E 139°42'0 0.0
2015-Jan-26 03:33N 35°26' E 139°42'0 0.0
2015-Jan-26 02:30N 35°26' E 139°42'0 0.0
2015-Jan-26 01:33N 35°25' E 139°42'0 0.0
2015-Jan-26 00:33N 35°25' E 139°42'0 0.0
2015-Jan-25 23:33N 35°25' E 139°42'0 0.0
2015-Jan-25 22:33N 35°25' E 139°42'0 0.0
2015-Jan-25 21:33N 35°25' E 139°42'0 0.0
2015-Jan-25 20:33N 35°25' E 139°42'0 0.0
2015-Jan-25 19:33N 35°25' E 139°42'0 0.0
2015-Jan-25 18:33N 35°25' E 139°42'0 0.0
2015-Jan-25 17:33N 35°25' E 139°42'0 0.0
2015-Jan-25 16:33N 35°25' E 139°42'0 0.0
2015-Jan-25 15:33N 35°25' E 139°42'0 0.0
2015-Jan-25 14:33N 35°25' E 139°42'0 0.0
2015-Jan-25 13:33N 35°25' E 139°42'0 0.0
2015-Jan-25 12:33N 35°25' E 139°42'0 0.0
2015-Jan-25 11:33N 35°26' E 139°42'0 0.0
2015-Jan-25 10:33N 35°26' E 139°42'0 0.0
2015-Jan-25 09:30N 35°26' E 139°42'0 0.1
2015-Jan-25 08:33N 35°26' E 139°42'0 0.1
2015-Jan-25 07:24N 35°26' E 139°42'0 0.0
2015-Jan-25 06:30N 35°26' E 139°42'0 0.0
2015-Jan-25 05:30N 35°26' E 139°42'0 0.0
2015-Jan-25 04:30N 35°25' E 139°42'0 0.0
2015-Jan-25 03:33N 35°25' E 139°42'0 0.1
2015-Jan-25 02:33N 35°25' E 139°42'7 7.4
2015-Jan-25 01:33N 35°18' E 139°44'1212.1
2015-Jan-25 00:33N 35°06' E 139°46'1413.7
2015-Jan-24 23:33N 34°58' E 139°33'  
Track history (hours):
 
Tides and Currents Weather Stations Pressure Air Temp Water Temp Dewpoint Dewpoint Depression Visibility Wind Speed Wind Dir Waves Ship Positions

Pulau Tioman

Last reported at 2015-Jan-29 08:31 UTC. Time now 2015-Jan-31 10:09 UTC.
Position N 34°37' E 134°57'.

Length 120 m; draft 5.7 m.

Type: Cargo ship. MMSI: 356613000.

Date/timePositionNaut miles runAvg speedWind from/ knotsBaromVisibWave heightAir tempDewpointWater temp
2015-Jan-29 08:31N 34°37' E 134°57'1313.9
2015-Jan-29 07:34N 34°36' E 135°13'6 5.9
2015-Jan-29 06:32N 34°42' E 135°15'0 0.0
2015-Jan-29 05:27N 34°42' E 135°15'0 0.0
2015-Jan-29 04:32N 34°42' E 135°15'0 0.0
2015-Jan-29 03:32N 34°42' E 135°15'0 0.0
2015-Jan-29 02:32N 34°42' E 135°15'0 0.0
2015-Jan-29 01:32N 34°42' E 135°15'0 0.1
2015-Jan-29 00:33N 34°42' E 135°15'8 8.1
2015-Jan-28 23:33N 34°34' E 135°15'1413.7
2015-Jan-28 22:33N 34°23' E 135°04'1313.3
2015-Jan-28 21:33N 34°11' E 134°59'1414.3
2015-Jan-28 20:34N 33°56' E 134°59'216 6.3
2015-Jan-27 10:06N 34°46' E 139°14'2113.4
2015-Jan-27 08:34N 35°00' E 139°32'1413.6
2015-Jan-27 07:33N 35°10' E 139°45'1212.0
2015-Jan-27 06:33N 35°21' E 139°42'6 5.8
2015-Jan-27 05:33N 35°27' E 139°41'0 0.0
2015-Jan-27 04:33N 35°27' E 139°41'0 0.0
2015-Jan-27 03:33N 35°27' E 139°41'0 0.0
2015-Jan-27 02:33N 35°27' E 139°41'0 0.0
2015-Jan-27 01:33N 35°27' E 139°41'0 0.0
2015-Jan-27 00:33N 35°27' E 139°41'0 0.0
2015-Jan-26 23:33N 35°27' E 139°41'0 0.0
2015-Jan-26 22:33N 35°27' E 139°41'0 0.0
2015-Jan-26 21:33N 35°27' E 139°41'0 0.0
2015-Jan-26 20:33N 35°27' E 139°41'0 0.0
2015-Jan-26 19:33N 35°27' E 139°41'0 0.0
2015-Jan-26 18:33N 35°27' E 139°41'0 0.0
2015-Jan-26 17:30N 35°27' E 139°41'0 0.0
2015-Jan-26 16:33N 35°27' E 139°41'0 0.0
2015-Jan-26 15:33N 35°27' E 139°41'0 0.0
2015-Jan-26 14:33N 35°27' E 139°41'0 0.0
2015-Jan-26 13:33N 35°27' E 139°41'0 0.0
2015-Jan-26 12:33N 35°27' E 139°41'0 0.0
2015-Jan-26 11:33N 35°27' E 139°41'0 0.0
2015-Jan-26 10:33N 35°27' E 139°41'0 0.0
2015-Jan-26 09:33N 35°27' E 139°41'2 1.6
2015-Jan-26 08:33N 35°26' E 139°42'0 0.2
2015-Jan-26 07:33N 35°26' E 139°42'0 0.0
2015-Jan-26 06:33N 35°26' E 139°42'0 0.0
2015-Jan-26 05:33N 35°26' E 139°42'0 0.0
2015-Jan-26 04:33N 35°26' E 139°42'0 0.0
2015-Jan-26 03:33N 35°26' E 139°42'0 0.0
2015-Jan-26 02:30N 35°26' E 139°42'0 0.0
2015-Jan-26 01:33N 35°25' E 139°42'0 0.0
2015-Jan-26 00:33N 35°25' E 139°42'0 0.0
2015-Jan-25 23:33N 35°25' E 139°42'0 0.0
2015-Jan-25 22:33N 35°25' E 139°42'0 0.0
2015-Jan-25 21:33N 35°25' E 139°42'0 0.0
2015-Jan-25 20:33N 35°25' E 139°42'0 0.0
2015-Jan-25 19:33N 35°25' E 139°42'0 0.0
2015-Jan-25 18:33N 35°25' E 139°42'0 0.0
2015-Jan-25 17:33N 35°25' E 139°42'0 0.0
2015-Jan-25 16:33N 35°25' E 139°42'0 0.0
2015-Jan-25 15:33N 35°25' E 139°42'0 0.0
2015-Jan-25 14:33N 35°25' E 139°42'0 0.0
2015-Jan-25 13:33N 35°25' E 139°42'0 0.0
2015-Jan-25 12:33N 35°25' E 139°42'0 0.0
2015-Jan-25 11:33N 35°26' E 139°42'0 0.0
2015-Jan-25 10:33N 35°26' E 139°42'0 0.0
2015-Jan-25 09:30N 35°26' E 139°42'0 0.1
2015-Jan-25 08:33N 35°26' E 139°42'0 0.1
2015-Jan-25 07:24N 35°26' E 139°42'0 0.0
2015-Jan-25 06:30N 35°26' E 139°42'0 0.0
2015-Jan-25 05:30N 35°26' E 139°42'0 0.0
2015-Jan-25 04:30N 35°25' E 139°42'0 0.0
2015-Jan-25 03:33N 35°25' E 139°42'0 0.1
2015-Jan-25 02:33N 35°25' E 139°42'7 7.4
2015-Jan-25 01:33N 35°18' E 139°44'1212.1
2015-Jan-25 00:33N 35°06' E 139°46'1413.7
2015-Jan-24 23:33N 34°58' E 139°33'  

Dump ship's entire track history